sensor_id;sensor_type;location;lat;lon;timestamp;P1;durP1;ratioP1;P2;durP2;ratioP2
49440;SDS011;35317;51.978;6.296;2023-01-16T00:00:30;6.32;;;2.25;;
49440;SDS011;35317;51.978;6.296;2023-01-16T00:05:31;4.10;;;1.20;;
49440;SDS011;35317;51.978;6.296;2023-01-16T00:10:32;7.57;;;1.42;;
49440;SDS011;35317;51.978;6.296;2023-01-16T00:15:32;4.55;;;1.10;;
49440;SDS011;35317;51.978;6.296;2023-01-16T00:20:33;6.82;;;1.45;;
49440;SDS011;35317;51.978;6.296;2023-01-16T00:25:38;4.47;;;1.20;;
49440;SDS011;35317;51.978;6.296;2023-01-16T00:30:41;4.75;;;1.10;;
49440;SDS011;35317;51.978;6.296;2023-01-16T00:35:42;7.13;;;1.75;;
49440;SDS011;35317;51.978;6.296;2023-01-16T00:40:43;3.72;;;1.83;;
49440;SDS011;35317;51.978;6.296;2023-01-16T00:45:44;4.20;;;2.72;;
49440;SDS011;35317;51.978;6.296;2023-01-16T00:50:45;4.28;;;3.30;;
49440;SDS011;35317;51.978;6.296;2023-01-16T00:55:46;5.13;;;3.67;;
49440;SDS011;35317;51.978;6.296;2023-01-16T01:00:46;4.97;;;3.30;;
49440;SDS011;35317;51.978;6.296;2023-01-16T01:05:47;5.45;;;2.67;;
49440;SDS011;35317;51.978;6.296;2023-01-16T01:10:48;6.03;;;3.30;;
49440;SDS011;35317;51.978;6.296;2023-01-16T01:15:49;6.80;;;4.93;;
49440;SDS011;35317;51.978;6.296;2023-01-16T01:20:49;5.80;;;4.43;;
49440;SDS011;35317;51.978;6.296;2023-01-16T01:25:50;5.75;;;3.80;;
49440;SDS011;35317;51.978;6.296;2023-01-16T01:30:52;4.18;;;2.80;;
49440;SDS011;35317;51.978;6.296;2023-01-16T01:35:53;4.68;;;2.20;;
49440;SDS011;35317;51.978;6.296;2023-01-16T01:40:53;3.40;;;1.50;;
49440;SDS011;35317;51.978;6.296;2023-01-16T01:45:54;3.55;;;1.98;;
49440;SDS011;35317;51.978;6.296;2023-01-16T01:50:57;3.28;;;1.30;;
49440;SDS011;35317;51.978;6.296;2023-01-16T01:56:08;3.45;;;1.73;;
49440;SDS011;35317;51.978;6.296;2023-01-16T02:01:21;5.40;;;2.22;;
49440;SDS011;35317;51.978;6.296;2023-01-16T02:07:06;6.72;;;2.70;;
49440;SDS011;35317;51.978;6.296;2023-01-16T02:11:51;6.95;;;2.45;;
49440;SDS011;35317;51.978;6.296;2023-01-16T02:17:17;12.98;;;2.60;;
49440;SDS011;35317;51.978;6.296;2023-01-16T02:23:01;12.27;;;2.80;;
49440;SDS011;35317;51.978;6.296;2023-01-16T02:34:08;8.18;;;1.60;;
49440;SDS011;35317;51.978;6.296;2023-01-16T02:40:02;6.18;;;2.20;;
49440;SDS011;35317;51.978;6.296;2023-01-16T02:45:21;10.00;;;2.07;;
49440;SDS011;35317;51.978;6.296;2023-01-16T02:50:33;9.63;;;2.50;;
49440;SDS011;35317;51.978;6.296;2023-01-16T02:55:53;11.00;;;2.40;;
49440;SDS011;35317;51.978;6.296;2023-01-16T03:01:02;10.68;;;2.13;;
49440;SDS011;35317;51.978;6.296;2023-01-16T03:11:31;9.18;;;2.90;;
49440;SDS011;35317;51.978;6.296;2023-01-16T03:16:55;16.95;;;2.35;;
49440;SDS011;35317;51.978;6.296;2023-01-16T03:22:10;9.75;;;2.25;;
49440;SDS011;35317;51.978;6.296;2023-01-16T03:27:34;10.45;;;2.80;;
49440;SDS011;35317;51.978;6.296;2023-01-16T03:32:53;10.38;;;2.70;;
49440;SDS011;35317;51.978;6.296;2023-01-16T03:38:06;13.23;;;2.40;;
49440;SDS011;35317;51.978;6.296;2023-01-16T03:48:29;11.45;;;2.53;;
49440;SDS011;35317;51.978;6.296;2023-01-16T03:53:51;9.68;;;2.80;;
49440;SDS011;35317;51.978;6.296;2023-01-16T03:59:02;11.73;;;2.30;;
49440;SDS011;35317;51.978;6.296;2023-01-16T04:09:19;14.13;;;2.60;;
49440;SDS011;35317;51.978;6.296;2023-01-16T04:14:26;14.80;;;2.17;;
49440;SDS011;35317;51.978;6.296;2023-01-16T04:19:30;11.35;;;2.47;;
49440;SDS011;35317;51.978;6.296;2023-01-16T04:24:33;9.20;;;2.50;;
49440;SDS011;35317;51.978;6.296;2023-01-16T04:29:35;10.93;;;2.50;;
49440;SDS011;35317;51.978;6.296;2023-01-16T04:34:36;16.48;;;2.53;;
49440;SDS011;35317;51.978;6.296;2023-01-16T04:39:36;12.52;;;2.30;;
49440;SDS011;35317;51.978;6.296;2023-01-16T04:44:37;9.70;;;2.50;;
49440;SDS011;35317;51.978;6.296;2023-01-16T04:49:38;11.35;;;2.20;;
49440;SDS011;35317;51.978;6.296;2023-01-16T04:54:39;9.85;;;1.90;;
49440;SDS011;35317;51.978;6.296;2023-01-16T04:59:39;12.40;;;2.35;;
49440;SDS011;35317;51.978;6.296;2023-01-16T05:04:40;13.95;;;2.10;;
49440;SDS011;35317;51.978;6.296;2023-01-16T05:09:41;11.20;;;2.10;;
49440;SDS011;35317;51.978;6.296;2023-01-16T05:14:42;12.25;;;1.80;;
49440;SDS011;35317;51.978;6.296;2023-01-16T05:19:43;13.20;;;2.40;;
49440;SDS011;35317;51.978;6.296;2023-01-16T05:24:44;7.00;;;1.60;;
49440;SDS011;35317;51.978;6.296;2023-01-16T05:29:45;9.70;;;2.20;;
49440;SDS011;35317;51.978;6.296;2023-01-16T05:34:45;8.85;;;2.05;;
49440;SDS011;35317;51.978;6.296;2023-01-16T05:39:46;9.50;;;1.75;;
49440;SDS011;35317;51.978;6.296;2023-01-16T05:44:47;3.42;;;1.52;;
49440;SDS011;35317;51.978;6.296;2023-01-16T05:49:48;4.07;;;1.50;;
49440;SDS011;35317;51.978;6.296;2023-01-16T05:54:49;12.38;;;2.15;;
49440;SDS011;35317;51.978;6.296;2023-01-16T05:59:51;6.30;;;1.50;;
49440;SDS011;35317;51.978;6.296;2023-01-16T06:04:53;7.15;;;2.15;;
49440;SDS011;35317;51.978;6.296;2023-01-16T06:09:53;7.60;;;2.38;;
49440;SDS011;35317;51.978;6.296;2023-01-16T06:14:54;7.97;;;1.75;;
49440;SDS011;35317;51.978;6.296;2023-01-16T06:19:55;10.23;;;2.70;;
49440;SDS011;35317;51.978;6.296;2023-01-16T06:24:57;11.13;;;2.97;;
49440;SDS011;35317;51.978;6.296;2023-01-16T06:29:57;12.68;;;3.38;;
49440;SDS011;35317;51.978;6.296;2023-01-16T06:34:58;12.55;;;3.47;;
49440;SDS011;35317;51.978;6.296;2023-01-16T06:39:59;8.02;;;2.85;;
49440;SDS011;35317;51.978;6.296;2023-01-16T06:45:01;12.32;;;3.13;;
49440;SDS011;35317;51.978;6.296;2023-01-16T06:50:02;11.38;;;3.00;;
49440;SDS011;35317;51.978;6.296;2023-01-16T06:55:03;8.13;;;2.90;;
49440;SDS011;35317;51.978;6.296;2023-01-16T07:00:10;8.32;;;2.53;;
49440;SDS011;35317;51.978;6.296;2023-01-16T07:05:12;6.85;;;1.90;;
49440;SDS011;35317;51.978;6.296;2023-01-16T07:10:13;5.60;;;1.80;;
49440;SDS011;35317;51.978;6.296;2023-01-16T07:15:14;5.95;;;1.55;;
49440;SDS011;35317;51.978;6.296;2023-01-16T07:20:34;6.95;;;0.90;;
49440;SDS011;35317;51.978;6.296;2023-01-16T07:25:54;7.22;;;1.60;;
49440;SDS011;35317;51.978;6.296;2023-01-16T07:30:56;6.50;;;1.30;;
49440;SDS011;35317;51.978;6.296;2023-01-16T07:35:58;6.93;;;1.10;;
49440;SDS011;35317;51.978;6.296;2023-01-16T07:40:59;6.63;;;1.27;;
49440;SDS011;35317;51.978;6.296;2023-01-16T07:46:00;5.38;;;1.30;;
49440;SDS011;35317;51.978;6.296;2023-01-16T07:51:01;4.60;;;1.35;;
49440;SDS011;35317;51.978;6.296;2023-01-16T07:56:02;4.30;;;0.82;;
49440;SDS011;35317;51.978;6.296;2023-01-16T08:01:03;3.97;;;1.48;;
49440;SDS011;35317;51.978;6.296;2023-01-16T08:06:06;4.97;;;2.03;;
49440;SDS011;35317;51.978;6.296;2023-01-16T08:11:07;5.57;;;1.50;;
49440;SDS011;35317;51.978;6.296;2023-01-16T08:16:26;5.38;;;1.50;;
49440;SDS011;35317;51.978;6.296;2023-01-16T08:21:27;5.57;;;1.35;;
49440;SDS011;35317;51.978;6.296;2023-01-16T08:26:28;17.90;;;1.95;;
49440;SDS011;35317;51.978;6.296;2023-01-16T08:31:29;5.32;;;1.60;;
49440;SDS011;35317;51.978;6.296;2023-01-16T08:36:30;6.28;;;1.70;;
49440;SDS011;35317;51.978;6.296;2023-01-16T08:41:31;3.38;;;1.38;;
49440;SDS011;35317;51.978;6.296;2023-01-16T08:46:58;7.35;;;1.40;;
49440;SDS011;35317;51.978;6.296;2023-01-16T08:52:24;5.90;;;1.40;;
49440;SDS011;35317;51.978;6.296;2023-01-16T08:57:27;8.80;;;1.70;;
49440;SDS011;35317;51.978;6.296;2023-01-16T09:02:28;2.30;;;1.25;;
49440;SDS011;35317;51.978;6.296;2023-01-16T09:07:31;12.02;;;1.70;;
49440;SDS011;35317;51.978;6.296;2023-01-16T09:12:32;6.22;;;1.65;;
49440;SDS011;35317;51.978;6.296;2023-01-16T09:17:51;2.83;;;1.65;;
49440;SDS011;35317;51.978;6.296;2023-01-16T09:23:10;7.65;;;1.60;;
49440;SDS011;35317;51.978;6.296;2023-01-16T09:28:10;7.05;;;1.80;;
49440;SDS011;35317;51.978;6.296;2023-01-16T09:33:11;4.50;;;1.80;;
49440;SDS011;35317;51.978;6.296;2023-01-16T09:38:12;5.60;;;1.58;;
49440;SDS011;35317;51.978;6.296;2023-01-16T09:43:25;4.65;;;2.20;;
49440;SDS011;35317;51.978;6.296;2023-01-16T09:48:38;4.05;;;1.80;;
49440;SDS011;35317;51.978;6.296;2023-01-16T09:54:19;7.40;;;1.70;;
49440;SDS011;35317;51.978;6.296;2023-01-16T09:59:50;7.10;;;1.67;;
49440;SDS011;35317;51.978;6.296;2023-01-16T10:04:55;5.53;;;2.22;;
49440;SDS011;35317;51.978;6.296;2023-01-16T10:15:39;6.65;;;2.78;;
49440;SDS011;35317;51.978;6.296;2023-01-16T10:20:48;8.82;;;2.00;;
49440;SDS011;35317;51.978;6.296;2023-01-16T10:32:28;5.22;;;1.75;;
49440;SDS011;35317;51.978;6.296;2023-01-16T10:37:43;5.10;;;1.60;;
49440;SDS011;35317;51.978;6.296;2023-01-16T10:42:46;6.95;;;1.83;;
49440;SDS011;35317;51.978;6.296;2023-01-16T10:48:14;6.50;;;2.10;;
49440;SDS011;35317;51.978;6.296;2023-01-16T10:53:34;7.05;;;1.83;;
49440;SDS011;35317;51.978;6.296;2023-01-16T10:58:37;5.10;;;1.45;;
49440;SDS011;35317;51.978;6.296;2023-01-16T11:03:41;3.90;;;1.40;;
49440;SDS011;35317;51.978;6.296;2023-01-16T11:08:48;3.72;;;1.30;;
49440;SDS011;35317;51.978;6.296;2023-01-16T11:13:53;3.13;;;1.50;;
49440;SDS011;35317;51.978;6.296;2023-01-16T11:19:18;3.63;;;1.05;;
49440;SDS011;35317;51.978;6.296;2023-01-16T11:24:31;2.80;;;1.13;;
49440;SDS011;35317;51.978;6.296;2023-01-16T11:29:38;3.72;;;1.10;;
49440;SDS011;35317;51.978;6.296;2023-01-16T11:34:45;2.03;;;0.73;;
49440;SDS011;35317;51.978;6.296;2023-01-16T11:39:48;3.60;;;0.73;;
49440;SDS011;35317;51.978;6.296;2023-01-16T11:44:52;2.85;;;0.80;;
49440;SDS011;35317;51.978;6.296;2023-01-16T11:55:37;1.73;;;0.98;;
49440;SDS011;35317;51.978;6.296;2023-01-16T12:01:00;3.50;;;0.80;;
49440;SDS011;35317;51.978;6.296;2023-01-16T12:07:23;1.50;;;0.80;;
49440;SDS011;35317;51.978;6.296;2023-01-16T12:12:36;4.43;;;1.20;;
49440;SDS011;35317;51.978;6.296;2023-01-16T12:24:14;2.03;;;0.80;;
49440;SDS011;35317;51.978;6.296;2023-01-16T12:30:00;1.45;;;0.60;;
49440;SDS011;35317;51.978;6.296;2023-01-16T12:35:32;1.65;;;0.60;;
49440;SDS011;35317;51.978;6.296;2023-01-16T12:46:34;3.03;;;0.90;;
49440;SDS011;35317;51.978;6.296;2023-01-16T12:57:24;1.00;;;0.60;;
49440;SDS011;35317;51.978;6.296;2023-01-16T13:08:02;2.63;;;0.90;;
49440;SDS011;35317;51.978;6.296;2023-01-16T13:13:13;1.20;;;1.02;;
49440;SDS011;35317;51.978;6.296;2023-01-16T13:18:36;3.60;;;1.10;;
49440;SDS011;35317;51.978;6.296;2023-01-16T13:23:45;3.97;;;0.80;;
49440;SDS011;35317;51.978;6.296;2023-01-16T13:29:07;2.53;;;1.20;;
49440;SDS011;35317;51.978;6.296;2023-01-16T13:34:20;2.67;;;1.10;;
49440;SDS011;35317;51.978;6.296;2023-01-16T13:45:09;3.45;;;1.02;;
49440;SDS011;35317;51.978;6.296;2023-01-16T13:50:54;2.50;;;1.10;;
49440;SDS011;35317;51.978;6.296;2023-01-16T13:56:23;3.22;;;0.90;;
49440;SDS011;35317;51.978;6.296;2023-01-16T14:17:00;3.35;;;1.95;;
49440;SDS011;35317;51.978;6.296;2023-01-16T14:22:02;4.25;;;1.80;;
49440;SDS011;35317;51.978;6.296;2023-01-16T14:27:09;3.20;;;1.73;;
49440;SDS011;35317;51.978;6.296;2023-01-16T14:37:19;5.78;;;2.00;;
49440;SDS011;35317;51.978;6.296;2023-01-16T14:48:12;5.20;;;2.10;;
49440;SDS011;35317;51.978;6.296;2023-01-16T14:53:41;5.70;;;2.35;;
49440;SDS011;35317;51.978;6.296;2023-01-16T14:59:07;7.22;;;2.35;;
49440;SDS011;35317;51.978;6.296;2023-01-16T15:04:18;6.55;;;2.30;;
49440;SDS011;35317;51.978;6.296;2023-01-16T15:09:24;6.10;;;2.28;;
49440;SDS011;35317;51.978;6.296;2023-01-16T15:14:29;4.18;;;2.20;;
49440;SDS011;35317;51.978;6.296;2023-01-16T15:19:30;4.57;;;1.80;;
49440;SDS011;35317;51.978;6.296;2023-01-16T15:24:52;4.25;;;1.20;;
49440;SDS011;35317;51.978;6.296;2023-01-16T15:30:09;2.10;;;1.40;;
49440;SDS011;35317;51.978;6.296;2023-01-16T15:35:18;5.97;;;1.92;;
49440;SDS011;35317;51.978;6.296;2023-01-16T15:45:26;4.90;;;1.85;;
49440;SDS011;35317;51.978;6.296;2023-01-16T15:50:48;4.63;;;1.98;;
49440;SDS011;35317;51.978;6.296;2023-01-16T16:01:44;2.00;;;1.80;;
49440;SDS011;35317;51.978;6.296;2023-01-16T16:06:45;3.20;;;2.28;;
49440;SDS011;35317;51.978;6.296;2023-01-16T16:11:47;3.40;;;2.33;;
49440;SDS011;35317;51.978;6.296;2023-01-16T16:17:17;4.57;;;2.08;;
49440;SDS011;35317;51.978;6.296;2023-01-16T16:22:59;4.22;;;2.60;;
49440;SDS011;35317;51.978;6.296;2023-01-16T16:33:18;3.28;;;2.47;;
49440;SDS011;35317;51.978;6.296;2023-01-16T16:38:20;4.18;;;3.00;;
49440;SDS011;35317;51.978;6.296;2023-01-16T16:43:57;3.25;;;2.75;;
49440;SDS011;35317;51.978;6.296;2023-01-16T16:49:44;3.00;;;2.70;;
49440;SDS011;35317;51.978;6.296;2023-01-16T16:54:25;3.42;;;2.90;;
49440;SDS011;35317;51.978;6.296;2023-01-16T16:59:27;4.72;;;2.38;;
49440;SDS011;35317;51.978;6.296;2023-01-16T17:04:33;3.28;;;2.47;;
49440;SDS011;35317;51.978;6.296;2023-01-16T17:09:34;2.97;;;2.40;;
49440;SDS011;35317;51.978;6.296;2023-01-16T17:14:35;4.10;;;2.58;;
49440;SDS011;35317;51.978;6.296;2023-01-16T17:19:36;3.70;;;3.22;;
49440;SDS011;35317;51.978;6.296;2023-01-16T17:24:37;6.82;;;3.20;;
49440;SDS011;35317;51.978;6.296;2023-01-16T17:29:39;5.07;;;3.35;;
49440;SDS011;35317;51.978;6.296;2023-01-16T17:34:42;5.20;;;3.93;;
49440;SDS011;35317;51.978;6.296;2023-01-16T17:39:43;7.07;;;4.32;;
49440;SDS011;35317;51.978;6.296;2023-01-16T17:44:43;5.35;;;3.95;;
49440;SDS011;35317;51.978;6.296;2023-01-16T17:50:02;5.90;;;4.75;;
49440;SDS011;35317;51.978;6.296;2023-01-16T17:55:22;6.60;;;5.18;;
49440;SDS011;35317;51.978;6.296;2023-01-16T18:00:43;6.82;;;5.28;;
49440;SDS011;35317;51.978;6.296;2023-01-16T18:05:44;8.30;;;6.22;;
49440;SDS011;35317;51.978;6.296;2023-01-16T18:10:45;8.80;;;5.90;;
49440;SDS011;35317;51.978;6.296;2023-01-16T18:15:45;10.90;;;6.78;;
49440;SDS011;35317;51.978;6.296;2023-01-16T18:21:09;11.40;;;7.82;;
49440;SDS011;35317;51.978;6.296;2023-01-16T18:26:30;9.55;;;7.57;;
49440;SDS011;35317;51.978;6.296;2023-01-16T18:31:31;15.13;;;10.50;;
49440;SDS011;35317;51.978;6.296;2023-01-16T18:36:31;14.82;;;9.57;;
49440;SDS011;35317;51.978;6.296;2023-01-16T18:41:32;11.85;;;9.13;;
49440;SDS011;35317;51.978;6.296;2023-01-16T18:46:51;12.90;;;10.05;;
49440;SDS011;35317;51.978;6.296;2023-01-16T18:52:13;15.27;;;10.18;;
49440;SDS011;35317;51.978;6.296;2023-01-16T18:57:36;18.10;;;11.82;;
49440;SDS011;35317;51.978;6.296;2023-01-16T19:02:55;18.17;;;12.05;;
49440;SDS011;35317;51.978;6.296;2023-01-16T19:07:56;16.40;;;12.43;;
49440;SDS011;35317;51.978;6.296;2023-01-16T19:12:58;21.88;;;13.63;;
49440;SDS011;35317;51.978;6.296;2023-01-16T19:18:01;19.00;;;13.55;;
49440;SDS011;35317;51.978;6.296;2023-01-16T19:23:02;19.23;;;13.57;;
49440;SDS011;35317;51.978;6.296;2023-01-16T19:28:03;17.20;;;12.40;;
49440;SDS011;35317;51.978;6.296;2023-01-16T19:33:04;21.48;;;14.55;;
49440;SDS011;35317;51.978;6.296;2023-01-16T19:38:05;21.30;;;12.40;;
49440;SDS011;35317;51.978;6.296;2023-01-16T19:43:05;15.55;;;9.75;;
49440;SDS011;35317;51.978;6.296;2023-01-16T19:48:24;10.48;;;7.40;;
49440;SDS011;35317;51.978;6.296;2023-01-16T19:53:25;10.90;;;8.27;;
49440;SDS011;35317;51.978;6.296;2023-01-16T19:58:26;12.30;;;9.63;;
49440;SDS011;35317;51.978;6.296;2023-01-16T20:03:27;11.43;;;8.20;;
49440;SDS011;35317;51.978;6.296;2023-01-16T20:08:28;8.02;;;5.43;;
49440;SDS011;35317;51.978;6.296;2023-01-16T20:13:28;10.23;;;7.00;;
49440;SDS011;35317;51.978;6.296;2023-01-16T20:18:30;10.43;;;7.63;;
49440;SDS011;35317;51.978;6.296;2023-01-16T20:23:32;11.32;;;8.50;;
49440;SDS011;35317;51.978;6.296;2023-01-16T20:28:34;12.27;;;8.60;;
49440;SDS011;35317;51.978;6.296;2023-01-16T20:33:37;14.45;;;9.27;;
49440;SDS011;35317;51.978;6.296;2023-01-16T20:38:37;13.43;;;9.50;;
49440;SDS011;35317;51.978;6.296;2023-01-16T20:43:38;10.07;;;7.47;;
49440;SDS011;35317;51.978;6.296;2023-01-16T20:48:58;11.00;;;8.50;;
49440;SDS011;35317;51.978;6.296;2023-01-16T20:53:59;11.40;;;7.22;;
49440;SDS011;35317;51.978;6.296;2023-01-16T20:59:04;6.50;;;5.53;;
49440;SDS011;35317;51.978;6.296;2023-01-16T21:04:05;9.68;;;7.35;;
49440;SDS011;35317;51.978;6.296;2023-01-16T21:09:08;12.30;;;8.38;;
49440;SDS011;35317;51.978;6.296;2023-01-16T21:14:09;10.27;;;7.75;;
49440;SDS011;35317;51.978;6.296;2023-01-16T21:19:10;8.90;;;6.57;;
49440;SDS011;35317;51.978;6.296;2023-01-16T21:24:30;7.57;;;5.78;;
49440;SDS011;35317;51.978;6.296;2023-01-16T21:29:30;10.77;;;5.50;;
49440;SDS011;35317;51.978;6.296;2023-01-16T21:34:34;8.03;;;5.97;;
49440;SDS011;35317;51.978;6.296;2023-01-16T21:39:36;8.15;;;6.43;;
49440;SDS011;35317;51.978;6.296;2023-01-16T21:44:37;9.77;;;5.90;;
49440;SDS011;35317;51.978;6.296;2023-01-16T21:49:56;7.88;;;5.72;;
49440;SDS011;35317;51.978;6.296;2023-01-16T21:54:57;7.82;;;4.78;;
49440;SDS011;35317;51.978;6.296;2023-01-16T21:59:58;6.57;;;4.28;;
49440;SDS011;35317;51.978;6.296;2023-01-16T22:04:59;7.15;;;5.55;;
49440;SDS011;35317;51.978;6.296;2023-01-16T22:09:59;11.00;;;6.82;;
49440;SDS011;35317;51.978;6.296;2023-01-16T22:15:00;9.30;;;6.75;;
49440;SDS011;35317;51.978;6.296;2023-01-16T22:20:20;7.47;;;4.75;;
49440;SDS011;35317;51.978;6.296;2023-01-16T22:25:24;7.97;;;5.70;;
49440;SDS011;35317;51.978;6.296;2023-01-16T22:30:27;9.50;;;4.65;;
49440;SDS011;35317;51.978;6.296;2023-01-16T22:35:27;8.57;;;4.88;;
49440;SDS011;35317;51.978;6.296;2023-01-16T22:40:28;9.02;;;3.28;;
49440;SDS011;35317;51.978;6.296;2023-01-16T22:45:29;6.20;;;4.65;;
49440;SDS011;35317;51.978;6.296;2023-01-16T22:50:48;8.15;;;5.28;;
49440;SDS011;35317;51.978;6.296;2023-01-16T22:55:52;7.72;;;5.38;;
49440;SDS011;35317;51.978;6.296;2023-01-16T23:00:54;10.18;;;5.30;;
49440;SDS011;35317;51.978;6.296;2023-01-16T23:05:55;8.00;;;5.88;;
49440;SDS011;35317;51.978;6.296;2023-01-16T23:16:26;6.82;;;2.25;;
49440;SDS011;35317;51.978;6.296;2023-01-16T23:21:29;3.22;;;2.22;;
49440;SDS011;35317;51.978;6.296;2023-01-16T23:26:32;4.40;;;2.58;;
49440;SDS011;35317;51.978;6.296;2023-01-16T23:31:34;3.50;;;2.08;;
49440;SDS011;35317;51.978;6.296;2023-01-16T23:36:37;2.20;;;2.00;;
49440;SDS011;35317;51.978;6.296;2023-01-16T23:41:38;3.03;;;1.90;;
49440;SDS011;35317;51.978;6.296;2023-01-16T23:47:00;2.95;;;2.05;;
49440;SDS011;35317;51.978;6.296;2023-01-16T23:52:03;2.35;;;2.00;;
49440;SDS011;35317;51.978;6.296;2023-01-16T23:57:07;2.33;;;2.10;;
